パゴパゴ の空港の天気 - METARとTAF

パゴパゴ国際空港 ( NSTU / PPG ) - アメリカ領サモア パゴパゴ
飛行場実況気象(Metar)
観測時間06/17 11:50 SST (06/17 22:50 UTC)
風向・風速東南東 3m/s
視程10km以上
天気現象弱いしゅう雨
全天の4割程度の雲 雲底高度 490m
全天の4割程度の雲 雲底高度 1220m
全天の8割程度の雲 雲底高度 3350m
気温28℃
湿度76%
気圧1011.2hPa
METARNSTU 172250Z 11006KT 12SM -SHRA SCT016TCU SCT040 BKN110 28/23 A2986 RMK SHRAB36 TCU W-N-NE SLP112 T02800234
過去の天気等 Google飛行場航空写真 Wunderground天気予報

過去48時間のMETAR

飛行場予報(TAF)
発表時間: 6/17 12:45 SST (6/17 23:45 UTC)
予報対象時間: 17日13時 SST ~ 18日13時 SST
風向・風速東南東 6m/s
視程10km以上
少しの雲 雲底高度 610m
全天の4割程度の雲 雲底高度 1220m
全天の8割程度の雲 雲底高度 7620m
NSTU 172345Z 1800/1824 12012KT P6SM FEW020 SCT040 BKN250